sim
Sign-in with your pilot id or email,
or register
Callsign
Passwort

Schedule Details

Flight Number: DLH1831 (2)
Departure: Valencia Airport (LEVC) at 10:50
Arrival: Munich Airport (EDDM) at 13:10
Route: Lufthansa Passenger Schedule. Enter filed route here before submitting Pirep.

Weather Information
Getting current METAR information for LEVC 010000Z 29003KT CAVOK 18/16 Q1012 NOSIG
Getting current METAR information for EDDM 010020Z 33001KT 1500 0500NE R08L/0550D R08R/0700N BCFG NSC 05/05 Q1011 NOSIG

Schedule Frequency

Route Map